Terminal Aerodrome Forecast
Issued by NWS Nashville, TN

Home | Current Version | Previous Version | Text Only | Print | Product List | Glossary On
Versions: 1 2 3 4 5 6 7 8 9 10 11 12 13 14 15 16 17 18 19 20 21 22 23 24 25 26 27 28
000
FTUS44 KOHX 121652 AAD
TAFCSV
TAF AMD
KCSV 121652Z 1217/1312 32017G22KT P6SM BKN020 OVC030
     FM121800 31015G23KT P6SM BKN060
     FM130100 31009KT P6SM FEW250
     FM130600 30005KT P6SM SKC=

USA.gov is the U.S. government's official web portal to all federal, state and local government web resources and services.